createdAt,value
2022-12-01T00:01:08.163Z,101315.91
2022-12-01T00:03:35.623Z,101311.41
2022-12-01T00:06:04.697Z,101309.16
2022-12-01T00:08:31.923Z,101307.63
2022-12-01T00:11:05.657Z,101316.09
2022-12-01T00:13:32.485Z,101314.75
2022-12-01T00:16:09.321Z,101315.97
2022-12-01T00:18:35.905Z,101315.66
2022-12-01T00:21:02.445Z,101320.47
2022-12-01T00:23:28.926Z,101304.69
2022-12-01T00:25:55.567Z,101322.19
2022-12-01T00:28:22.003Z,101316.47
2022-12-01T00:30:48.465Z,101312.06
2022-12-01T00:33:15.158Z,101316.69
2022-12-01T00:35:41.590Z,101315.22
2022-12-01T00:38:08.059Z,101310.97
2022-12-01T00:40:35.420Z,101306.66
2022-12-01T00:43:02.404Z,101308.97
2022-12-01T00:45:28.795Z,101306.94
2022-12-01T00:47:55.273Z,101302.06
2022-12-01T00:50:21.813Z,101304.75
2022-12-01T00:52:48.543Z,101302.31
2022-12-01T00:55:15.102Z,101303.94
2022-12-01T00:57:41.527Z,101295.06
2022-12-01T01:00:08.672Z,101296.69
2022-12-01T01:02:35.771Z,101297.50
2022-12-01T01:05:02.226Z,101294.03
2022-12-01T01:07:30.134Z,101293.41
2022-12-01T01:09:56.983Z,101295.81
2022-12-01T01:12:23.492Z,101288.63
2022-12-01T01:14:50.051Z,101286.91
2022-12-01T01:17:16.666Z,101282.28
2022-12-01T01:19:43.367Z,101279.59
2022-12-01T01:22:09.786Z,101286.09
2022-12-01T01:24:36.572Z,101285.75
2022-12-01T01:27:03.153Z,101288.00
2022-12-01T01:29:29.701Z,101284.47
2022-12-01T01:31:56.241Z,101281.91
2022-12-01T01:34:22.702Z,101278.53
2022-12-01T01:36:49.311Z,101292.44
2022-12-01T01:39:16.287Z,101279.88
2022-12-01T01:41:42.910Z,101287.88
2022-12-01T01:44:46.796Z,101285.47
2022-12-01T01:47:13.924Z,101285.75
2022-12-01T01:49:41.090Z,101292.72
2022-12-01T01:52:07.799Z,101294.41
2022-12-01T01:54:38.238Z,101283.00
2022-12-01T01:57:05.930Z,101284.16
2022-12-01T01:59:37.876Z,101284.16
2022-12-01T02:02:09.287Z,101285.75
2022-12-01T02:04:41.188Z,101286.91
2022-12-01T02:07:09.186Z,101288.84
2022-12-01T02:09:36.410Z,101286.22
2022-12-01T02:12:40.015Z,101286.41
2022-12-01T02:15:15.443Z,101285.38
2022-12-01T02:18:06.981Z,101290.13
2022-12-01T02:20:59.150Z,101281.97
2022-12-01T02:23:31.730Z,101284.28
2022-12-01T02:26:39.356Z,101290.25
2022-12-01T02:29:37.690Z,101284.94
2022-12-01T02:32:15.908Z,101288.31
2022-12-01T02:34:56.396Z,101276.13
2022-12-01T02:37:34.221Z,101282.03
2022-12-01T02:40:12.082Z,101280.19
2022-12-01T02:42:56.630Z,101278.72
2022-12-01T02:45:43.328Z,101269.91
2022-12-01T02:48:14.607Z,101263.06
2022-12-01T02:50:42.967Z,101278.78
2022-12-01T02:53:11.598Z,101278.63
2022-12-01T02:55:47.083Z,101272.44
2022-12-01T02:58:14.874Z,101277.03
2022-12-01T03:00:55.044Z,101269.41
2022-12-01T03:03:45.089Z,101274.88
2022-12-01T03:06:24.643Z,101274.59
2022-12-01T03:09:09.419Z,101271.09
2022-12-01T03:11:50.468Z,101266.84
2022-12-01T03:14:35.145Z,101258.75
2022-12-01T03:17:05.164Z,101268.56
2022-12-01T03:19:38.999Z,101272.69
2022-12-01T03:22:11.187Z,101268.75
2022-12-01T03:24:38.959Z,101257.03
2022-12-01T03:27:06.479Z,101262.09
2022-12-01T03:29:43.259Z,101265.63
2022-12-01T03:32:24.136Z,101261.72
2022-12-01T03:34:58.550Z,101259.91
2022-12-01T03:37:35.338Z,101262.22
2022-12-01T03:40:03.255Z,101257.75
2022-12-01T03:42:36.938Z,101258.63
2022-12-01T03:45:10.277Z,101260.03
2022-12-01T03:47:39.716Z,101264.34
2022-12-01T03:50:08.124Z,101258.81
2022-12-01T03:53:22.270Z,101264.53
2022-12-01T03:55:52.699Z,101260.28
2022-12-01T03:58:26.318Z,101258.59
2022-12-01T04:00:55.671Z,101256.75
2022-12-01T04:03:24.594Z,101260.19
2022-12-01T04:05:51.237Z,101261.06
2022-12-01T04:08:17.963Z,101261.44
2022-12-01T04:10:44.413Z,101262.97
2022-12-01T04:13:16.937Z,101263.81
2022-12-01T04:15:43.570Z,101262.91
2022-12-01T04:18:10.072Z,101260.28
2022-12-01T04:20:36.690Z,101259.13
2022-12-01T04:23:03.094Z,101261.38
2022-12-01T04:25:29.513Z,101256.19
2022-12-01T04:27:56.146Z,101248.59
2022-12-01T04:30:22.705Z,101251.31
2022-12-01T04:32:49.163Z,101260.03
2022-12-01T04:35:15.826Z,101253.69
2022-12-01T04:37:42.245Z,101263.94
2022-12-01T04:40:09.140Z,101263.38
2022-12-01T04:42:35.759Z,101258.72
2022-12-01T04:45:02.389Z,101264.91
2022-12-01T04:47:28.865Z,101273.50
2022-12-01T04:49:55.527Z,101257.22
2022-12-01T04:52:22.038Z,101259.84
2022-12-01T04:54:48.473Z,101259.78
2022-12-01T04:57:15.308Z,101269.00
2022-12-01T04:59:41.737Z,101276.97
2022-12-01T05:02:08.241Z,101277.75
2022-12-01T05:04:38.694Z,101275.44
2022-12-01T05:07:05.390Z,101278.97
2022-12-01T05:09:31.876Z,101279.75
2022-12-01T05:11:58.394Z,101280.97
2022-12-01T05:14:24.807Z,101277.41
2022-12-01T05:16:51.359Z,101275.38
2022-12-01T05:19:36.563Z,101271.53
2022-12-01T05:22:03.025Z,101271.09
2022-12-01T05:24:29.567Z,101275.00
2022-12-01T05:26:56.057Z,101275.13
2022-12-01T05:29:22.649Z,101277.41
2022-12-01T05:31:49.158Z,101279.09
2022-12-01T05:34:16.135Z,101279.47
2022-12-01T05:36:42.547Z,101277.41
2022-12-01T05:39:08.965Z,101276.13
2022-12-01T05:41:35.519Z,101269.06
2022-12-01T05:44:02.086Z,101281.81
2022-12-01T05:46:28.486Z,101283.91
2022-12-01T05:48:55.111Z,101282.78
2022-12-01T05:51:21.645Z,101278.06
2022-12-01T05:53:48.123Z,101282.50
2022-12-01T05:56:14.959Z,101280.09
2022-12-01T05:58:41.565Z,101280.09
2022-12-01T06:01:07.995Z,101277.03
2022-12-01T06:03:35.482Z,101281.47
2022-12-01T06:06:02.175Z,101282.28
2022-12-01T06:08:28.749Z,101277.94
2022-12-01T06:10:55.249Z,101279.56
2022-12-01T06:13:21.849Z,101281.81
2022-12-01T06:16:02.631Z,101276.41
2022-12-01T06:18:35.302Z,101277.56
2022-12-01T06:21:02.760Z,101280.56
2022-12-01T06:23:30.741Z,101282.31
2022-12-01T06:25:57.861Z,101274.66
2022-12-01T06:28:24.333Z,101273.06
2022-12-01T06:30:50.870Z,101276.34
2022-12-01T06:33:17.963Z,101278.72
2022-12-01T06:35:44.659Z,101272.34
2022-12-01T06:38:11.155Z,101279.03
2022-12-01T06:40:37.661Z,101278.78
2022-12-01T06:43:04.135Z,101271.63
2022-12-01T06:45:30.990Z,101276.13
2022-12-01T06:47:57.931Z,101279.16
2022-12-01T06:50:25.184Z,101271.69
2022-12-01T06:52:52.784Z,101270.88
2022-12-01T06:55:19.574Z,101274.13
2022-12-01T06:57:46.395Z,101275.75
2022-12-01T07:00:14.117Z,101278.31
2022-12-01T07:02:40.753Z,101278.50
2022-12-01T07:05:07.687Z,101281.84
2022-12-01T07:07:38.605Z,101280.59
2022-12-01T07:10:06.306Z,101277.94
2022-12-01T07:12:32.842Z,101279.75
2022-12-01T07:14:59.408Z,101275.31
2022-12-01T07:17:26.066Z,101279.88
2022-12-01T07:19:52.612Z,101277.81
2022-12-01T07:22:19.674Z,101286.47
2022-12-01T07:24:46.584Z,101286.81
2022-12-01T07:27:13.123Z,101277.94
2022-12-01T07:29:39.795Z,101278.06
2022-12-01T07:32:06.587Z,101276.97
2022-12-01T07:34:33.474Z,101283.00
2022-12-01T07:37:00.086Z,101288.19
2022-12-01T07:39:26.874Z,101286.47
2022-12-01T07:41:53.415Z,101278.56
2022-12-01T07:44:20.011Z,101284.03
2022-12-01T07:46:46.612Z,101277.94
2022-12-01T07:49:15.555Z,101278.59
2022-12-01T07:51:42.250Z,101282.94
2022-12-01T07:54:10.859Z,101276.97
2022-12-01T07:56:37.630Z,101281.56
2022-12-01T07:59:04.176Z,101281.41
2022-12-01T08:01:30.983Z,101283.75
2022-12-01T08:03:58.937Z,101279.41
2022-12-01T08:06:26.691Z,101286.34
2022-12-01T08:08:53.435Z,101283.00
2022-12-01T08:11:22.712Z,101275.31
2022-12-01T08:13:50.111Z,101280.31
2022-12-01T08:16:18.726Z,101274.13
2022-12-01T08:18:45.153Z,101272.22
2022-12-01T08:21:14.890Z,101277.28
2022-12-01T08:23:42.212Z,101276.28
2022-12-01T08:26:18.521Z,101283.63
2022-12-01T08:28:45.870Z,101284.94
2022-12-01T08:31:14.225Z,101286.41
2022-12-01T08:33:40.971Z,101286.31
2022-12-01T08:36:07.977Z,101285.59
2022-12-01T08:38:35.765Z,101285.13
2022-12-01T08:41:03.933Z,101288.22
2022-12-01T08:46:17.291Z,101296.41
2022-12-01T08:48:43.896Z,101287.47
2022-12-01T08:51:12.720Z,101296.34
2022-12-01T08:53:45.482Z,101301.53
2022-12-01T08:56:27.674Z,101294.25
2022-12-01T08:58:55.175Z,101293.91
2022-12-01T09:01:22.206Z,101304.50
2022-12-01T09:03:49.108Z,101304.69
2022-12-01T09:06:20.181Z,101306.19
2022-12-01T09:08:47.331Z,101298.84
2022-12-01T09:11:17.613Z,101292.81
2022-12-01T09:13:48.626Z,101296.22
2022-12-01T09:16:18.567Z,101302.81
2022-12-01T09:18:46.459Z,101299.31
2022-12-01T09:21:18.132Z,101296.66
2022-12-01T09:23:44.717Z,101294.97
2022-12-01T09:26:13.830Z,101291.91
2022-12-01T09:28:40.816Z,101292.56
2022-12-01T09:31:09.177Z,101292.44
2022-12-01T09:33:36.427Z,101282.03
2022-12-01T09:36:05.262Z,101291.13
2022-12-01T09:38:34.061Z,101281.63
2022-12-01T09:41:17.800Z,101287.47
2022-12-01T09:43:49.250Z,101291.81
2022-12-01T09:46:22.289Z,101291.13
2022-12-01T09:48:49.908Z,101285.59
2022-12-01T09:51:22.533Z,101278.94
2022-12-01T09:53:51.494Z,101287.94
2022-12-01T09:56:22.414Z,101282.22
2022-12-01T09:58:57.533Z,101283.91
2022-12-01T10:01:36.070Z,101278.19
2022-12-01T10:04:10.056Z,101279.34
2022-12-01T10:06:39.939Z,101276.00
2022-12-01T10:09:25.878Z,101273.44
2022-12-01T10:11:55.461Z,101274.59
2022-12-01T10:14:22.309Z,101275.53
2022-12-01T10:17:04.122Z,101272.81
2022-12-01T10:20:11.163Z,101274.41
2022-12-01T10:22:45.978Z,101274.84
2022-12-01T10:25:27.750Z,101268.19
2022-12-01T10:28:27.361Z,101269.22
2022-12-01T10:30:57.440Z,101261.72
2022-12-01T10:33:26.219Z,101260.66
2022-12-01T10:35:53.108Z,101252.19
2022-12-01T10:38:25.577Z,101259.28
2022-12-01T10:40:53.728Z,101253.69
2022-12-01T10:43:40.917Z,101249.22
2022-12-01T10:46:22.775Z,101244.34
2022-12-01T10:48:55.384Z,101252.19
2022-12-01T10:51:22.829Z,101237.94
2022-12-01T10:53:50.136Z,101240.59
2022-12-01T10:56:19.143Z,101240.13
2022-12-01T10:58:48.062Z,101239.22
2022-12-01T11:01:24.325Z,101237.75
2022-12-01T11:03:59.480Z,101237.50
2022-12-01T11:06:29.448Z,101230.44
2022-12-01T11:08:58.312Z,101230.38
2022-12-01T11:11:34.121Z,101230.09
2022-12-01T11:14:04.761Z,101229.22
2022-12-01T11:16:40.994Z,101227.03
2022-12-01T11:19:26.892Z,101223.50
2022-12-01T11:21:57.207Z,101225.34
2022-12-01T11:24:54.654Z,101223.69
2022-12-01T11:27:49.572Z,101228.13
2022-12-01T11:30:26.277Z,101222.53
2022-12-01T11:32:55.781Z,101221.19
2022-12-01T11:35:25.068Z,101216.69
2022-12-01T11:40:49.641Z,101216.41
2022-12-01T11:43:37.073Z,101215.84
2022-12-01T11:46:05.886Z,101223.34
2022-12-01T11:48:36.444Z,101232.75
2022-12-01T11:51:37.345Z,101227.78
2022-12-01T11:54:11.858Z,101222.72
2022-12-01T11:56:38.455Z,101222.44
2022-12-01T11:59:26.616Z,101219.97
2022-12-01T12:02:06.180Z,101214.69
2022-12-01T12:04:41.468Z,101209.84
2022-12-01T12:07:46.904Z,101214.47
2022-12-01T12:10:39.063Z,101218.75
2022-12-01T12:13:05.894Z,101214.25
2022-12-01T12:16:01.355Z,101211.69
2022-12-01T12:19:03.448Z,101207.09
2022-12-01T12:21:44.666Z,101210.88
2022-12-01T12:24:14.851Z,101213.63
2022-12-01T12:26:52.521Z,101211.44
2022-12-01T12:29:35.964Z,101211.09
2022-12-01T12:32:22.116Z,101212.59
2022-12-01T12:35:01.145Z,101211.25
2022-12-01T12:37:49.920Z,101210.09
2022-12-01T12:40:41.080Z,101209.59
2022-12-01T12:43:30.365Z,101204.50
2022-12-01T12:46:07.567Z,101206.72
2022-12-01T12:49:11.639Z,101210.34
2022-12-01T12:51:55.780Z,101202.56
2022-12-01T12:54:32.630Z,101206.94
2022-12-01T12:57:03.687Z,101211.50
2022-12-01T12:59:43.497Z,101213.03
2022-12-01T13:02:15.122Z,101209.78
2022-12-01T13:05:05.654Z,101195.91
2022-12-01T13:08:00.228Z,101200.25
2022-12-01T13:10:36.989Z,101210.31
2022-12-01T13:13:30.482Z,101196.34
2022-12-01T13:15:58.878Z,101198.72
2022-12-01T13:18:41.332Z,101203.03
2022-12-01T13:21:20.495Z,101193.91
2022-12-01T13:23:49.308Z,101200.69
2022-12-01T13:26:18.381Z,101199.22
2022-12-01T13:28:49.297Z,101194.22
2022-12-01T13:31:19.759Z,101188.97
2022-12-01T13:33:56.246Z,101189.09
2022-12-01T13:36:45.789Z,101193.28
2022-12-01T13:39:23.195Z,101187.56
2022-12-01T13:42:18.182Z,101189.63
2022-12-01T13:44:51.205Z,101193.66
2022-12-01T13:47:20.841Z,101192.56
2022-12-01T13:49:52.272Z,101187.63
2022-12-01T13:52:22.109Z,101191.06
2022-12-01T13:55:09.584Z,101181.84
2022-12-01T13:57:45.456Z,101194.28
2022-12-01T14:00:26.216Z,101184.88
2022-12-01T14:03:19.423Z,101189.25
2022-12-01T14:05:46.059Z,101198.13
2022-12-01T14:08:23.667Z,101195.56
2022-12-01T14:10:56.826Z,101193.78
2022-12-01T14:13:24.332Z,101195.63
2022-12-01T14:16:01.929Z,101201.09
2022-12-01T14:18:57.663Z,101197.56
2022-12-01T14:21:45.625Z,101207.00
2022-12-01T14:24:23.523Z,101203.72
2022-12-01T14:26:51.086Z,101200.28
2022-12-01T14:29:32.479Z,101203.28
2022-12-01T14:32:01.705Z,101204.25
2022-12-01T14:34:32.197Z,101200.84
2022-12-01T14:37:17.020Z,101195.44
2022-12-01T14:39:46.533Z,101198.81
2022-12-01T14:42:43.968Z,101202.56
2022-12-01T14:45:13.754Z,101202.91
2022-12-01T14:47:47.799Z,101198.56
2022-12-01T14:50:35.300Z,101195.31
2022-12-01T14:53:07.302Z,101191.63
2022-12-01T14:55:42.185Z,101197.03
2022-12-01T14:58:20.155Z,101191.75
2022-12-01T15:01:06.087Z,101194.00
2022-12-01T15:03:44.300Z,101185.31
2022-12-01T15:06:20.254Z,101194.38
2022-12-01T15:09:10.614Z,101187.47
2022-12-01T15:11:35.942Z,101189.25
2022-12-01T15:14:02.725Z,101183.13
2022-12-01T15:16:40.632Z,101183.69
2022-12-01T15:19:32.777Z,101193.50
2022-12-01T15:22:02.668Z,101180.06
2022-12-01T15:24:30.968Z,101182.41
2022-12-01T15:27:03.472Z,101183.91
2022-12-01T15:29:33.353Z,101182.19
2022-12-01T15:32:05.716Z,101183.47
2022-12-01T15:34:36.325Z,101190.72
2022-12-01T15:37:04.773Z,101186.75
2022-12-01T15:39:35.507Z,101175.59
2022-12-01T15:42:02.445Z,101187.75
2022-12-01T15:44:35.259Z,101185.72
2022-12-01T15:47:50.115Z,101185.38
2022-12-01T15:50:26.165Z,101189.81
2022-12-01T15:52:52.736Z,101189.41
2022-12-01T15:55:27.025Z,101185.47
2022-12-01T15:57:53.898Z,101190.31
2022-12-01T16:00:21.950Z,101195.34
2022-12-01T16:02:53.749Z,101194.81
2022-12-01T16:05:24.295Z,101195.94
2022-12-01T16:08:12.505Z,101193.41
2022-12-01T16:10:37.462Z,101198.63
2022-12-01T16:13:35.400Z,101211.66
2022-12-01T16:16:20.366Z,101214.25
2022-12-01T16:19:24.013Z,101215.69
2022-12-01T16:21:53.735Z,101207.81
2022-12-01T16:24:31.914Z,101207.88
2022-12-01T16:27:04.138Z,101204.38
2022-12-01T16:29:35.359Z,101215.19
2022-12-01T16:32:20.714Z,101204.44
2022-12-01T16:34:48.462Z,101212.69
2022-12-01T16:37:15.435Z,101219.81
2022-12-01T16:39:42.134Z,101215.69
2022-12-01T16:42:16.528Z,101218.59
2022-12-01T16:44:44.828Z,101216.16
2022-12-01T16:47:19.350Z,101211.84
2022-12-01T16:49:46.237Z,101212.88
2022-12-01T16:52:43.165Z,101209.56
2022-12-01T16:54:59.912Z,101207.66
2022-12-01T16:57:26.309Z,101209.66
2022-12-01T16:59:52.872Z,101208.94
2022-12-01T17:02:19.457Z,101215.06
2022-12-01T17:04:46.007Z,101200.91
2022-12-01T17:07:12.475Z,101206.25
2022-12-01T17:09:39.237Z,101201.88
2022-12-01T17:12:05.858Z,101207.28
2022-12-01T17:14:32.304Z,101203.72
2022-12-01T17:16:59.074Z,101202.06
2022-12-01T17:19:25.522Z,101196.97
2022-12-01T17:21:52.922Z,101195.31
2022-12-01T17:24:19.566Z,101197.06
2022-12-01T17:26:46.090Z,101198.88
2022-12-01T17:29:12.562Z,101199.84
2022-12-01T17:31:39.058Z,101207.09
2022-12-01T17:34:05.554Z,101201.50
2022-12-01T17:36:32.091Z,101204.53
2022-12-01T17:38:58.917Z,101202.16
2022-12-01T17:41:32.039Z,101206.72
2022-12-01T17:43:58.574Z,101207.66
2022-12-01T17:46:25.089Z,101201.19
2022-12-01T17:48:51.607Z,101207.28
2022-12-01T17:51:18.132Z,101205.75
2022-12-01T17:53:44.723Z,101198.75
2022-12-01T17:56:13.426Z,101199.41
2022-12-01T17:58:39.874Z,101199.69
2022-12-01T18:01:10.789Z,101205.06
2022-12-01T18:03:37.244Z,101202.28
2022-12-01T18:06:03.806Z,101200.63
2022-12-01T18:08:31.313Z,101200.66
2022-12-01T18:11:02.708Z,101204.78
2022-12-01T18:13:29.355Z,101200.50
2022-12-01T18:15:55.890Z,101197.00
2022-12-01T18:18:22.528Z,101191.75
2022-12-01T18:20:49.168Z,101193.63
2022-12-01T18:23:16.002Z,101193.72
2022-12-01T18:25:42.661Z,101196.94
2022-12-01T18:28:11.147Z,101190.31
2022-12-01T18:30:38.724Z,101199.13
2022-12-01T18:33:06.563Z,101193.91
2022-12-01T18:35:34.021Z,101203.28
2022-12-01T18:38:00.615Z,101202.44
2022-12-01T18:40:27.308Z,101205.88
2022-12-01T18:42:53.832Z,101200.94
2022-12-01T18:45:21.515Z,101199.94
2022-12-01T18:47:48.294Z,101197.50
2022-12-01T18:50:14.867Z,101199.84
2022-12-01T18:52:41.399Z,101195.81
2022-12-01T18:55:08.158Z,101197.38
2022-12-01T18:57:35.663Z,101195.53
2022-12-01T19:00:04.826Z,101199.13
2022-12-01T19:02:31.436Z,101192.28
2022-12-01T19:04:57.903Z,101198.75
2022-12-01T19:07:29.584Z,101198.72
2022-12-01T19:09:56.451Z,101197.97
2022-12-01T19:12:22.939Z,101199.13
2022-12-01T19:14:49.828Z,101208.47
2022-12-01T19:17:16.757Z,101199.78
2022-12-01T19:19:43.241Z,101194.91
2022-12-01T19:22:10.131Z,101201.97
2022-12-01T19:24:36.593Z,101202.59
2022-12-01T19:27:03.199Z,101206.59
2022-12-01T19:29:29.615Z,101198.63
2022-12-01T19:31:56.317Z,101202.13
2022-12-01T19:34:22.887Z,101200.34
2022-12-01T19:36:52.170Z,101199.50
2022-12-01T19:39:18.996Z,101194.56
2022-12-01T19:41:45.522Z,101199.13
2022-12-01T19:44:12.137Z,101200.03
2022-12-01T19:46:38.642Z,101194.72
2022-12-01T19:49:06.637Z,101193.03
2022-12-01T19:51:35.474Z,101201.19
2022-12-01T19:54:03.768Z,101196.06
2022-12-01T19:56:31.215Z,101196.09
2022-12-01T19:58:58.727Z,101190.63
2022-12-01T20:01:25.800Z,101188.09
2022-12-01T20:03:53.284Z,101187.94
2022-12-01T20:06:22.835Z,101198.38
2022-12-01T20:08:49.706Z,101196.84
2022-12-01T20:11:16.847Z,101192.50
2022-12-01T20:13:45.173Z,101192.16
2022-12-01T20:16:17.288Z,101196.47
2022-12-01T20:18:43.978Z,101194.91
2022-12-01T20:21:16.125Z,101203.38
2022-12-01T20:23:44.129Z,101197.56
2022-12-01T20:26:11.958Z,101196.91
2022-12-01T20:28:39.130Z,101202.97
2022-12-01T20:31:12.267Z,101199.38
2022-12-01T20:33:39.805Z,101204.31
2022-12-01T20:36:07.575Z,101199.19
2022-12-01T20:38:35.602Z,101204.53
2022-12-01T20:41:02.303Z,101200.97
2022-12-01T20:43:28.890Z,101198.78
2022-12-01T20:45:55.622Z,101206.47
2022-12-01T20:48:22.318Z,101199.31
2022-12-01T20:50:48.869Z,101212.25
2022-12-01T20:53:15.982Z,101201.84
2022-12-01T20:55:43.233Z,101194.63
2022-12-01T20:58:10.048Z,101196.47
2022-12-01T21:00:41.104Z,101196.06
2022-12-01T21:03:07.776Z,101198.06
2022-12-01T21:05:37.977Z,101197.28
2022-12-01T21:08:08.058Z,101203.28
2022-12-01T21:10:38.134Z,101197.03
2022-12-01T21:13:39.292Z,101195.44
2022-12-01T21:16:14.077Z,101196.06
2022-12-01T21:18:55.381Z,101193.75
2022-12-01T21:21:35.099Z,101199.03
2022-12-01T21:24:07.581Z,101194.63
2022-12-01T21:26:36.285Z,101198.19
2022-12-01T21:29:14.304Z,101206.78
2022-12-01T21:31:41.128Z,101191.13
2022-12-01T21:34:14.622Z,101193.81
2022-12-01T21:36:41.270Z,101193.88
2022-12-01T21:39:14.678Z,101190.13
2022-12-01T21:41:41.562Z,101185.94
2022-12-01T21:44:13.674Z,101193.81
2022-12-01T21:46:42.029Z,101191.16
2022-12-01T21:49:20.476Z,101186.81
2022-12-01T21:51:48.314Z,101190.13
2022-12-01T21:54:22.099Z,101190.13
2022-12-01T21:56:49.189Z,101186.72
2022-12-01T21:59:19.421Z,101185.78
2022-12-01T22:01:46.646Z,101191.00
2022-12-01T22:04:19.035Z,101191.16
2022-12-01T22:06:48.707Z,101182.31
2022-12-01T22:09:22.192Z,101184.13
2022-12-01T22:11:56.956Z,101184.28
2022-12-01T22:14:27.213Z,101186.47
2022-12-01T22:16:59.183Z,101184.69
2022-12-01T22:19:29.042Z,101183.88
2022-12-01T22:22:16.113Z,101185.47
2022-12-01T22:24:45.155Z,101180.03
2022-12-01T22:27:30.084Z,101177.41
2022-12-01T22:30:07.294Z,101177.59
2022-12-01T22:32:34.079Z,101174.28
2022-12-01T22:35:10.689Z,101167.22
2022-12-01T22:37:43.413Z,101168.97
2022-12-01T22:40:35.664Z,101172.56
2022-12-01T22:43:17.698Z,101169.28
2022-12-01T22:45:49.742Z,101172.63
2022-12-01T22:48:46.179Z,101171.53
2022-12-01T22:51:12.746Z,101163.72
2022-12-01T22:53:40.279Z,101169.88
2022-12-01T22:56:38.672Z,101169.09
2022-12-01T22:59:37.613Z,101169.78
2022-12-01T23:02:21.313Z,101168.34
2022-12-01T23:04:56.863Z,101164.22
2022-12-01T23:07:26.192Z,101163.81
2022-12-01T23:09:53.020Z,101156.75
2022-12-01T23:12:31.463Z,101156.91
2022-12-01T23:15:14.894Z,101164.16
2022-12-01T23:17:41.689Z,101160.53
2022-12-01T23:20:11.553Z,101149.66
2022-12-01T23:22:38.554Z,101155.13
2022-12-01T23:25:17.277Z,101157.25
2022-12-01T23:27:46.264Z,101156.28
2022-12-01T23:30:14.443Z,101163.53
2022-12-01T23:32:41.380Z,101164.31
2022-12-01T23:35:16.391Z,101160.56
2022-12-01T23:37:44.491Z,101157.06
2022-12-01T23:40:21.087Z,101154.41
2022-12-01T23:42:47.819Z,101158.06
2022-12-01T23:45:21.731Z,101154.84
2022-12-01T23:47:48.969Z,101150.59
2022-12-01T23:50:20.119Z,101151.28
2022-12-01T23:52:46.945Z,101148.88
2022-12-01T23:55:26.506Z,101146.09
2022-12-01T23:57:53.423Z,101144.59
